Time;durP1;ratioP1;P1;durP2;ratioP2;P2;SDS_P1;SDS_P2;PMS_P1;PMS_P2;Temp;Humidity;BMP_temperature;BMP_pressure;BME280_temperature;BME280_humidity;BME280_pressure;Samples;Min_cycle;Max_cycle;Signal;HPM_P1;HPM_P2
2023/10/10 00:01:30;;;;;;;;;;;;;;;;;;;;;
2023/10/10 00:04:11;;;;;;;8.35;6.78;;;14.80;99.90;;;;;;5054163;28;20052;-92
2023/10/10 00:06:45;;;;;;;19.30;8.38;;;14.80;99.90;;;;;;5070619;28;20502;-92
2023/10/10 00:09:14;;;;;;;14.25;8.60;;;14.50;99.90;;;;;;5056048;28;20040;-91
2023/10/10 00:11:48;;;;;;;9.73;7.95;;;14.80;99.90;;;;;;5054682;28;20551;-91
2023/10/10 00:14:19;;;;;;;14.32;7.88;;;14.80;99.90;;;;;;5071216;28;20079;-91
2023/10/10 00:17:14;;;;;;;15.43;7.97;;;14.80;99.90;;;;;;5071001;28;20114;-91
2023/10/10 00:19:54;;;;;;;9.25;7.03;;;14.20;99.90;;;;;;5052382;28;20037;-91
2023/10/10 00:22:35;;;;;;;12.25;7.90;;;14.80;99.90;;;;;;5055315;28;20132;-91
2023/10/10 00:25:12;;;;;;;12.35;8.07;;;14.80;99.90;;;;;;5020604;28;20053;-91
2023/10/10 00:27:43;;;;;;;10.73;6.95;;;14.80;99.90;;;;;;5066644;28;20045;-91
2023/10/10 00:30:11;;;;;;;9.85;7.55;;;14.80;99.90;;;;;;5038665;28;20049;-91
2023/10/10 00:32:45;;;;;;;9.77;6.90;;;14.80;99.90;;;;;;5014815;28;20049;-91
2023/10/10 00:35:18;;;;;;;11.77;7.55;;;14.80;99.90;;;;;;5040796;28;20049;-91
2023/10/10 00:37:46;;;;;;;12.50;7.50;;;14.80;99.90;;;;;;5037601;28;20134;-91
2023/10/10 00:40:39;;;;;;;10.05;7.88;;;14.80;99.90;;;;;;5073795;28;20037;-91
2023/10/10 00:43:17;;;;;;;12.70;7.45;;;14.80;99.90;;;;;;5036240;28;20128;-92
2023/10/10 00:45:54;;;;;;;11.85;7.40;;;14.30;99.90;;;;;;5082497;28;20037;-91
2023/10/10 00:48:30;;;;;;;10.05;5.90;;;14.80;99.90;;;;;;5068565;28;20049;-91
2023/10/10 00:51:14;;;;;;;10.65;7.10;;;14.80;99.90;;;;;;5034840;28;20079;-91
2023/10/10 00:53:45;;;;;;;13.77;7.82;;;14.80;99.90;;;;;;5053173;28;20109;-91
2023/10/10 00:56:21;;;;;;;13.50;7.53;;;14.80;99.90;;;;;;5040421;28;20284;-92
2023/10/10 00:59:16;;;;;;;9.73;7.00;;;14.80;99.90;;;;;;5054168;28;20101;-92
2023/10/10 01:01:52;;;;;;;11.18;7.18;;;14.90;99.90;;;;;;5024119;28;20045;-92
2023/10/10 01:07:18;;;;;;;;;;;;;;;;;;;;;
2023/10/10 01:09:56;;;;;;;13.93;7.90;;;14.00;99.90;;;;;;5041636;28;20546;-92
2023/10/10 01:12:46;;;;;;;13.15;7.47;;;14.80;99.90;;;;;;5037709;28;20045;-91
2023/10/10 01:15:57;;;;;;;10.65;6.93;;;14.80;99.90;;;;;;5031512;28;20135;-92
2023/10/10 01:18:24;;;;;;;8.77;7.65;;;14.80;99.90;;;;;;5045604;28;20046;-91
2023/10/10 01:21:02;;;;;;;9.57;7.10;;;14.80;99.90;;;;;;5045405;28;20041;-91
2023/10/10 01:23:47;;;;;;;;;;;;;;;;;;;;;
2023/10/10 01:26:16;;;;;;;;;;;15.60;99.90;;;;;;5028813;28;20641;-92
2023/10/10 01:28:56;;;;;;;15.73;8.25;;;14.80;99.90;;;;;;5036001;28;19927;-91
2023/10/10 01:31:25;;;;;;;14.35;8.38;;;14.90;99.90;;;;;;5070371;28;20041;-92
2023/10/10 01:34:06;;;;;;;13.48;8.13;;;14.80;99.90;;;;;;5027329;28;20094;-91
2023/10/10 01:36:43;;;;;;;12.18;8.20;;;14.80;99.90;;;;;;5042612;28;20064;-92
2023/10/10 01:39:34;;;;;;;10.77;7.63;;;14.30;99.90;;;;;;5021221;28;20042;-91
2023/10/10 01:42:24;;;;;;;13.93;8.80;;;14.80;99.90;;;;;;5068156;28;20045;-91
2023/10/10 01:44:54;;;;;;;11.90;8.50;;;14.80;99.90;;;;;;5020732;28;20059;-91
2023/10/10 01:47:26;;;;;;;10.60;8.18;;;14.80;99.90;;;;;;5050528;28;20087;-91
2023/10/10 01:49:58;;;;;;;14.00;8.23;;;14.70;99.90;;;;;;5034506;28;20044;-91
2023/10/10 01:52:38;;;;;;;10.68;8.18;;;14.80;99.90;;;;;;5052107;28;20052;-91
2023/10/10 01:55:07;;;;;;;9.57;8.13;;;14.70;99.90;;;;;;5060760;28;20041;-91
2023/10/10 01:57:36;;;;;;;13.10;9.85;;;14.80;99.90;;;;;;5065459;28;20045;-91
2023/10/10 02:00:20;;;;;;;12.20;8.98;;;14.80;99.90;;;;;;5019558;28;20127;-92
2023/10/10 02:02:58;;;;;;;11.73;7.72;;;14.40;99.90;;;;;;5007947;28;20504;-91
2023/10/10 02:08:26;;;;;;;8.75;7.40;;;14.80;99.90;;;;;;5074800;28;20053;-92
2023/10/10 02:10:59;;;;;;;13.50;9.13;;;14.80;99.90;;;;;;5038833;28;20495;-91
2023/10/10 02:13:39;;;;;;;12.02;7.57;;;14.70;99.90;;;;;;5033992;28;20124;-91
2023/10/10 02:16:17;;;;;;;12.25;8.18;;;14.70;99.90;;;;;;5042465;28;20057;-92
2023/10/10 02:18:54;;;;;;;10.93;7.35;;;14.70;99.90;;;;;;5029466;28;20063;-91
2023/10/10 02:22:13;;;;;;;11.32;9.30;;;14.70;99.90;;;;;;5022774;28;20053;-91
2023/10/10 02:26:57;;;;;;;10.25;8.32;;;14.70;99.90;;;;;;5077704;28;20046;-91
2023/10/10 02:32:11;;;;;;;9.88;8.23;;;14.70;99.90;;;;;;5042438;28;20110;-91
2023/10/10 02:34:51;;;;;;;13.55;8.45;;;14.70;99.90;;;;;;5050192;28;20064;-90
2023/10/10 02:37:41;;;;;;;11.07;8.07;;;14.80;99.90;;;;;;5061985;28;20494;-91
2023/10/10 02:40:31;;;;;;;9.55;7.55;;;13.80;99.90;;;;;;5005017;28;20044;-92
2023/10/10 02:45:45;;;;;;;12.00;7.68;;;14.70;99.90;;;;;;5080964;28;20098;-91
2023/10/10 02:48:20;;;;;;;13.02;7.72;;;14.80;99.90;;;;;;5017727;28;20048;-92
2023/10/10 02:50:46;;;;;;;10.00;7.50;;;14.70;99.90;;;;;;5026429;28;20065;-91
2023/10/10 02:53:15;;;;;;;8.40;6.95;;;14.70;99.90;;;;;;5031249;28;20065;-92
2023/10/10 02:55:50;;;;;;;8.75;7.90;;;14.20;99.90;;;;;;5007566;28;20047;-91
2023/10/10 02:58:27;;;;;;;11.88;8.45;;;14.20;99.90;;;;;;5036607;28;20053;-91
2023/10/10 03:01:03;;;;;;;10.05;7.15;;;14.70;99.90;;;;;;5038314;28;20147;-91
2023/10/10 03:03:39;;;;;;;8.63;7.22;;;15.30;99.90;;;;;;5023699;28;20049;-91
2023/10/10 03:06:29;;;;;;;9.00;7.18;;;14.70;99.90;;;;;;5040519;28;20053;-90
2023/10/10 03:09:14;;;;;;;8.38;7.05;;;14.70;99.90;;;;;;5046936;28;20107;-91
2023/10/10 03:11:53;;;;;;;9.95;7.65;;;14.60;99.90;;;;;;5069895;28;20045;-91
2023/10/10 03:14:28;;;;;;;9.82;7.20;;;14.60;99.90;;;;;;5069760;28;20045;-90
2023/10/10 03:17:08;;;;;;;10.82;7.90;;;14.60;99.90;;;;;;5053186;28;20049;-91
2023/10/10 03:19:50;;;;;;;10.75;7.35;;;14.40;99.90;;;;;;5066398;28;20060;-91
2023/10/10 03:22:46;;;;;;;9.98;7.60;;;14.60;99.90;;;;;;5052217;28;20486;-91
2023/10/10 03:25:26;;;;;;;9.57;7.18;;;14.60;99.90;;;;;;5053210;28;20081;-91
2023/10/10 03:28:17;;;;;;;;;;;;;;;;;;;;;
2023/10/10 03:30:50;;;;;;;11.27;8.18;;;14.60;99.90;;;;;;5075251;28;20041;-91
2023/10/10 05:24:42;;;;;;;30.27;17.88;;;14.50;99.90;;;;;;5085930;28;20072;-91
2023/10/10 05:27:29;;;;;;;27.13;19.67;;;13.60;99.90;;;;;;5068225;28;20057;-91
2023/10/10 05:29:59;;;;;;;36.63;20.95;;;14.50;99.90;;;;;;5069288;28;20044;-90
2023/10/10 05:32:30;;;;;;;33.33;24.10;;;14.50;99.90;;;;;;5067887;28;20045;-90
2023/10/10 05:34:58;;;;;;;34.47;25.17;;;14.50;99.90;;;;;;5056507;28;20065;-89
2023/10/10 05:37:34;;;;;;;35.55;23.63;;;14.50;99.90;;;;;;5023784;28;20045;-91
2023/10/10 05:40:06;;;;;;;38.05;23.17;;;14.60;99.90;;;;;;5078565;28;20045;-90
2023/10/10 05:42:45;;;;;;;30.48;22.58;;;14.60;99.90;;;;;;5050357;28;20080;-92
2023/10/10 05:45:22;;;;;;;34.35;24.20;;;14.50;99.90;;;;;;5017956;28;20044;-91
2023/10/10 05:48:00;;;;;;;30.75;23.23;;;14.60;99.90;;;;;;5034952;28;20049;-91
2023/10/10 05:50:28;;;;;;;30.70;23.25;;;14.30;99.90;;;;;;5067465;28;20041;-91
2023/10/10 05:53:27;;;;;;;31.63;22.67;;;14.40;99.90;;;;;;5058625;28;20051;-90
2023/10/10 05:55:59;;;;;;;36.35;24.50;;;15.20;99.90;;;;;;5052501;28;20174;-91
2023/10/10 05:58:30;;;;;;;36.60;23.35;;;14.40;99.90;;;;;;5068610;28;20053;-90
2023/10/10 06:00:59;;;;;;;35.17;24.48;;;13.40;99.90;;;;;;5066417;28;20583;-91
2023/10/10 06:03:38;;;;;;;32.65;23.45;;;13.60;99.90;;;;;;5061008;28;20072;-92
2023/10/10 06:06:18;;;;;;;;;;;;;;;;;;;;;
2023/10/10 06:08:46;;;;;;;30.40;23.33;;;14.20;99.90;;;;;;5072884;28;20055;-91
2023/10/10 06:11:16;;;;;;;33.80;22.98;;;13.30;99.90;;;;;;5048629;28;20168;-90
2023/10/10 06:13:43;;;;;;;31.60;22.90;;;14.30;99.90;;;;;;5032464;28;20099;-89
2023/10/10 06:16:18;;;;;;;35.38;23.73;;;14.40;99.90;;;;;;5030900;28;20053;-90
2023/10/10 06:18:47;;;;;;;33.83;22.67;;;14.40;99.90;;;;;;5044906;28;20122;-91
2023/10/10 06:21:29;;;;;;;32.25;21.98;;;14.30;99.90;;;;;;5034771;28;20057;-91
2023/10/10 06:24:12;;;;;;;30.73;22.88;;;14.30;99.90;;;;;;5077285;28;20140;-90
2023/10/10 06:26:49;;;;;;;36.22;22.15;;;14.30;99.90;;;;;;5017924;28;20447;-91
2023/10/10 06:29:18;;;;;;;43.38;24.40;;;14.30;99.90;;;;;;5036905;28;20535;-91
2023/10/10 06:31:49;;;;;;;38.25;25.10;;;13.60;99.90;;;;;;5075282;28;20049;-91
2023/10/10 06:34:23;;;;;;;35.55;22.35;;;14.40;99.90;;;;;;5067814;28;20096;-91
2023/10/10 06:36:54;;;;;;;38.72;25.50;;;14.60;99.90;;;;;;5029291;28;20051;-90
2023/10/10 06:39:32;;;;;;;39.83;24.85;;;14.40;99.90;;;;;;5048254;28;20045;-89
2023/10/10 06:42:03;;;;;;;32.40;22.67;;;14.40;99.90;;;;;;5058220;28;20049;-90
2023/10/10 06:44:34;;;;;;;37.38;24.67;;;14.50;99.90;;;;;;5039721;28;20056;-90
2023/10/10 06:47:08;;;;;;;32.75;24.17;;;14.50;99.90;;;;;;5038579;28;20048;-89
2023/10/10 06:49:54;;;;;;;34.13;24.23;;;14.50;99.90;;;;;;5056703;28;20055;-89
2023/10/10 06:52:21;;;;;;;34.78;23.52;;;14.60;99.90;;;;;;5038049;28;20115;-91
2023/10/10 06:54:56;;;;;;;36.03;24.55;;;14.60;99.90;;;;;;5059946;28;20131;-89
2023/10/10 06:57:35;;;;;;;31.35;22.65;;;14.60;99.90;;;;;;5030994;28;20543;-88
2023/10/10 07:02:40;;;;;;;38.13;24.27;;;14.80;99.90;;;;;;5075077;28;20465;-88
2023/10/10 07:05:15;;;;;;;31.45;23.70;;;14.80;99.90;;;;;;5041503;28;20067;-87
2023/10/10 07:07:43;;;;;;;40.97;24.75;;;14.80;99.90;;;;;;5024553;28;20095;-87
2023/10/10 07:10:24;;;;;;;37.17;25.15;;;14.80;99.90;;;;;;5059092;28;20063;-88
2023/10/10 07:12:53;;;;;;;33.63;23.83;;;14.90;99.90;;;;;;5023928;28;20075;-87
2023/10/10 07:15:21;;;;;;;34.97;26.95;;;14.90;99.90;;;;;;5015758;28;20053;-89
2023/10/10 07:17:49;;;;;;;39.47;26.85;;;14.90;99.90;;;;;;5024378;28;20395;-89
2023/10/10 07:22:53;;;;;;;38.53;26.65;;;14.90;99.90;;;;;;5057981;28;20049;-88
2023/10/10 07:25:31;;;;;;;42.38;30.10;;;15.00;99.90;;;;;;5041063;28;20045;-88
2023/10/10 07:27:57;;;;;;;45.67;31.08;;;15.00;99.90;;;;;;5021712;28;20059;-89
2023/10/10 07:30:33;;;;;;;48.15;32.10;;;15.00;99.90;;;;;;5059128;28;20045;-89
2023/10/10 07:33:03;;;;;;;52.38;33.85;;;15.00;99.90;;;;;;5049560;28;20044;-90
2023/10/10 07:35:35;;;;;;;45.67;31.48;;;15.00;99.90;;;;;;5050524;28;20056;-89
2023/10/10 07:38:01;;;;;;;49.67;31.17;;;15.10;99.90;;;;;;5065248;28;20040;-90
2023/10/10 07:40:37;;;;;;;44.38;30.77;;;14.70;99.90;;;;;;5101391;28;20158;-89
2023/10/10 07:43:07;;;;;;;50.05;31.83;;;15.30;99.90;;;;;;5051908;28;20083;-88
2023/10/10 07:45:43;;;;;;;43.17;31.90;;;15.30;99.90;;;;;;5051469;28;20041;-88
2023/10/10 07:50:49;;;;;;;49.60;34.38;;;15.50;99.90;;;;;;5024925;28;20045;-88
2023/10/10 07:53:17;;;;;;;53.30;33.60;;;15.40;99.90;;;;;;5071843;28;20122;-88
2023/10/10 07:58:27;;;;;;;57.85;39.50;;;15.60;99.90;;;;;;5072850;28;20057;-90
2023/10/10 08:01:07;;;;;;;50.35;34.92;;;15.60;99.90;;;;;;5055409;28;20040;-87
2023/10/10 08:03:34;;;;;;;57.78;40.42;;;15.70;99.90;;;;;;5037074;28;20102;-85
2023/10/10 08:05:59;;;;;;;61.03;39.42;;;15.70;99.90;;;;;;5045138;28;20055;-86
2023/10/10 08:08:28;;;;;;;61.37;38.93;;;15.70;99.90;;;;;;5071031;28;20127;-89
2023/10/10 08:10:54;;;;;;;65.18;42.40;;;16.40;99.90;;;;;;5037208;28;20052;-89
2023/10/10 08:13:28;;;;;;;66.80;42.28;;;15.80;99.90;;;;;;5058141;28;20044;-88
2023/10/10 08:16:01;;;;;;;67.20;43.30;;;15.60;99.90;;;;;;5029506;28;20124;-89
2023/10/10 08:21:13;;;;;;;70.20;43.83;;;15.80;99.90;;;;;;5040586;28;20056;-87
2023/10/10 08:23:48;;;;;;;68.38;46.75;;;15.90;99.90;;;;;;5067701;28;20083;-88
2023/10/10 08:26:18;;;;;;;64.93;44.22;;;15.90;99.90;;;;;;5062517;28;20414;-88
2023/10/10 08:28:48;;;;;;;68.05;46.20;;;16.10;99.90;;;;;;5051422;28;20421;-88
2023/10/10 08:31:17;;;;;;;66.05;42.88;;;16.00;99.90;;;;;;5033391;28;20603;-89
2023/10/10 08:33:48;;;;;;;65.70;43.92;;;16.00;99.90;;;;;;5060556;28;20048;-92
2023/10/10 08:36:27;;;;;;;68.82;44.33;;;15.20;99.90;;;;;;5018317;28;20098;-90
2023/10/10 08:39:01;;;;;;;62.88;40.55;;;16.20;99.90;;;;;;5033258;28;20489;-90
2023/10/10 08:41:36;;;;;;;61.50;44.03;;;16.20;99.90;;;;;;5061729;28;20258;-89
2023/10/10 08:44:02;;;;;;;57.05;40.35;;;16.30;99.90;;;;;;5058796;28;20107;-89
2023/10/10 08:46:34;;;;;;;61.17;40.60;;;16.30;99.90;;;;;;5054693;28;20046;-89
2023/10/10 08:49:06;;;;;;;63.20;45.58;;;17.10;99.90;;;;;;5082722;28;20046;-89
2023/10/10 08:51:33;;;;;;;55.10;40.67;;;16.40;99.90;;;;;;5069940;28;20132;-88
2023/10/10 08:54:09;;;;;;;57.60;39.88;;;16.50;99.90;;;;;;5057002;28;20045;-88
2023/10/10 08:57:14;;;;;;;60.88;38.45;;;16.60;99.90;;;;;;5035821;28;20057;-89
2023/10/10 08:59:36;;;;;;;55.28;37.15;;;16.60;99.90;;;;;;5040715;28;20135;-89
2023/10/10 09:02:15;;;;;;;56.78;39.25;;;16.60;99.90;;;;;;5036396;28;20041;-89
2023/10/10 09:04:41;;;;;;;57.88;40.20;;;16.10;99.90;;;;;;5050763;28;20082;-88
2023/10/10 09:07:32;;;;;;;60.47;39.42;;;16.60;99.90;;;;;;5049538;28;20052;-89
2023/10/10 09:10:13;;;;;;;56.05;39.80;;;16.70;99.90;;;;;;5033425;28;20046;-90
2023/10/10 09:13:16;;;;;;;56.17;39.03;;;16.90;99.90;;;;;;5055832;28;20162;-88
2023/10/10 09:15:34;;;;;;;60.10;40.22;;;16.90;99.90;;;;;;5038570;28;20045;-87
2023/10/10 09:18:22;;;;;;;54.28;38.53;;;17.00;99.90;;;;;;5057402;28;20413;-86
2023/10/10 09:20:49;;;;;;;56.25;38.08;;;17.10;99.90;;;;;;5034624;28;20111;-81
2023/10/10 09:23:26;;;;;;;54.55;38.42;;;17.10;99.90;;;;;;5041264;28;20038;-87
2023/10/10 09:28:58;;;;;;;54.38;38.92;;;17.10;99.90;;;;;;5074429;28;20521;-87
2023/10/10 09:31:31;;;;;;;54.67;39.58;;;17.20;99.90;;;;;;5052848;28;20128;-88
2023/10/10 09:33:59;;;;;;;53.17;38.78;;;17.30;99.90;;;;;;5073350;28;20460;-90
2023/10/10 09:36:28;;;;;;;53.25;38.10;;;17.40;99.90;;;;;;5058991;28;20491;-88
2023/10/10 09:39:08;;;;;;;59.42;39.10;;;17.50;99.90;;;;;;5044063;28;20045;-92
2023/10/10 09:50:27;;;;;;;48.67;37.10;;;18.00;94.00;;;;;;5062143;28;20044;-91
2023/10/10 09:52:53;;;;;;;46.22;36.53;;;18.10;94.20;;;;;;5045713;28;20055;-90
2023/10/10 10:03:42;;;;;;;53.10;37.95;;;18.20;87.40;;;;;;5039278;28;20041;-90
2023/10/10 10:09:16;;;;;;;51.50;35.85;;;18.40;80.90;;;;;;5052964;28;20041;-81
2023/10/10 10:12:29;;;;;;;48.13;35.53;;;18.60;75.90;;;;;;5058419;28;20049;-90
2023/10/10 10:15:38;;;;;;;46.72;35.33;;;18.60;69.80;;;;;;5078936;28;20107;-88
2023/10/10 10:18:13;;;;;;;44.78;33.78;;;18.60;65.50;;;;;;5039583;28;20052;-91
2023/10/10 10:23:27;;;;;;;46.10;31.75;;;18.60;72.90;;;;;;5031268;28;20045;-89
2023/10/10 10:25:54;;;;;;;41.42;31.05;;;18.70;69.80;;;;;;5056062;28;20040;-88
2023/10/10 10:28:28;;;;;;;46.70;32.47;;;18.80;64.40;;;;;;5049420;28;20053;-96
2023/10/10 10:31:02;;;;;;;41.95;30.98;;;18.80;63.80;;;;;;5042231;28;20048;-85
2023/10/10 10:33:33;;;;;;;44.95;31.40;;;19.00;63.80;;;;;;5040174;28;20117;-87
2023/10/10 10:36:14;;;;;;;41.03;30.73;;;19.10;58.70;;;;;;5046559;28;20049;-90
2023/10/10 10:39:17;;;;;;;38.15;29.05;;;19.30;54.00;;;;;;5047889;28;20049;-87
2023/10/10 10:41:42;;;;;;;35.03;28.63;;;19.50;50.30;;;;;;5035082;28;20048;-88
2023/10/10 10:44:13;;;;;;;38.60;28.95;;;19.70;49.30;;;;;;5052180;28;20080;-92
2023/10/10 10:46:48;;;;;;;35.47;26.48;;;19.90;45.10;;;;;;5039911;28;20047;-88
2023/10/10 10:49:14;;;;;;;35.50;25.75;;;19.30;40.90;;;;;;5052902;28;20087;-88
2023/10/10 10:51:49;;;;;;;34.33;26.25;;;20.10;36.30;;;;;;5053385;28;20478;-88
2023/10/10 10:54:35;;;;;;;35.08;26.50;;;20.40;35.30;;;;;;5035584;28;20063;-88
2023/10/10 10:57:06;;;;;;;37.92;27.90;;;20.50;20.10;;;;;;5037022;28;20106;-89
2023/10/10 10:59:45;;;;;;;35.13;26.58;;;20.60;21.10;;;;;;5049992;28;20044;-88
2023/10/10 11:02:31;;;;;;;33.72;24.98;;;20.50;16.70;;;;;;5053185;28;20060;-89
2023/10/10 11:04:58;;;;;;;33.30;24.00;;;20.50;3.40;;;;;;5037728;28;20098;-88
2023/10/10 11:07:40;;;;;;;37.72;24.77;;;20.50;13.30;;;;;;5037764;28;20053;-88
2023/10/10 11:10:10;;;;;;;30.67;24.23;;;20.50;1.00;;;;;;5035534;28;20072;-88
2023/10/10 11:12:40;;;;;;;33.83;24.55;;;20.40;11.00;;;;;;5037514;28;20143;-88
2023/10/10 11:15:10;;;;;;;30.70;23.52;;;20.30;11.90;;;;;;5051995;28;20052;-89
2023/10/10 11:17:39;;;;;;;29.65;23.02;;;20.10;11.60;;;;;;5036676;28;20049;-88
2023/10/10 11:20:28;;;;;;;30.65;23.77;;;20.10;14.50;;;;;;5051665;28;20089;-88
2023/10/10 11:23:21;;;;;;;;;;;;;;;;;;;;;
2023/10/10 11:26:01;;;;;;;26.73;21.27;;;19.00;21.60;;;;;;5054149;28;20052;-88
2023/10/10 11:28:46;;;;;;;29.05;19.98;;;20.00;22.40;;;;;;5022555;28;20056;-88
2023/10/10 11:31:19;;;;;;;29.63;20.65;;;20.10;23.50;;;;;;5034693;28;20161;-90
2023/10/10 11:34:10;;;;;;;27.00;20.25;;;20.10;16.20;;;;;;5071208;28;20092;-88
2023/10/10 11:36:39;;;;;;;;;;;20.20;1.00;;;;;;5055168;28;20046;-88
2023/10/10 11:39:31;;;;;;;28.23;22.00;;;20.70;1.00;;;;;;5052823;28;20015;-88
2023/10/10 11:42:00;;;;;;;26.55;21.48;;;20.30;1.00;;;;;;5035477;28;20049;-88
2023/10/10 11:44:41;;;;;;;30.33;20.90;;;20.30;9.10;;;;;;5019578;28;20375;-88
2023/10/10 11:47:30;;;;;;;30.13;20.30;;;20.30;6.10;;;;;;5091267;28;20444;-88
2023/10/10 11:50:05;;;;;;;29.58;20.48;;;20.50;12.70;;;;;;5040393;28;20052;-88
2023/10/10 11:52:56;;;;;;;25.27;20.17;;;20.90;3.90;;;;;;5057502;28;20136;-88
2023/10/10 11:55:34;;;;;;;23.13;18.58;;;21.20;1.00;;;;;;5058415;28;20049;-88
2023/10/10 11:58:07;;;;;;;29.48;19.73;;;21.40;1.00;;;;;;5073649;28;20045;-88
2023/10/10 12:00:45;;;;;;;25.13;19.35;;;21.70;1.00;;;;;;5073067;28;20045;-88
2023/10/10 12:03:32;;;;;;;24.10;18.75;;;21.30;1.00;;;;;;5041917;28;20045;-88
2023/10/10 12:06:14;;;;;;;30.30;21.25;;;21.80;1.00;;;;;;5089762;28;20063;-89
2023/10/10 12:08:50;;;;;;;25.33;19.60;;;21.80;1.00;;;;;;5039519;28;20085;-88
2023/10/10 12:11:25;;;;;;;25.60;19.57;;;21.10;1.00;;;;;;5072108;28;20098;-88
2023/10/10 12:13:56;;;;;;;26.00;20.48;;;21.90;1.00;;;;;;5057237;28;20288;-89
2023/10/10 12:16:24;;;;;;;24.63;20.17;;;22.10;1.00;;;;;;5038587;28;20067;-89
2023/10/10 12:18:52;;;;;;;24.70;20.20;;;22.40;1.00;;;;;;5054395;28;20178;-88
2023/10/10 12:21:20;;;;;;;20.77;16.70;;;22.70;1.00;;;;;;5054787;28;20127;-88
2023/10/10 12:23:56;;;;;;;25.85;18.42;;;22.90;1.00;;;;;;5054772;28;20186;-88
2023/10/10 12:26:23;;;;;;;22.25;16.75;;;22.30;1.00;;;;;;5037593;28;20410;-89
2023/10/10 12:28:52;;;;;;;18.67;15.77;;;23.40;1.00;;;;;;5036741;28;20043;-88
2023/10/10 12:31:21;;;;;;;21.30;16.00;;;22.70;1.00;;;;;;5069751;28;20540;-88
2023/10/10 12:33:48;;;;;;;21.98;17.02;;;23.50;99.90;;;;;;5070641;28;20468;-88
2023/10/10 12:36:32;;;;;;;23.35;15.63;;;23.90;99.90;;;;;;5070933;28;20487;-89
2023/10/10 12:39:04;;;;;;;20.20;15.30;;;23.30;99.90;;;;;;5054500;28;20053;-89
2023/10/10 12:41:35;;;;;;;21.05;16.02;;;23.20;99.90;;;;;;5070641;28;20479;-88
2023/10/10 12:44:06;;;;;;;19.23;16.75;;;23.10;99.90;;;;;;5055030;28;20053;-89
2023/10/10 12:46:34;;;;;;;23.63;18.15;;;23.10;99.90;;;;;;5054580;28;20048;-89
2023/10/10 12:49:02;;;;;;;21.35;16.48;;;22.90;99.90;;;;;;5054022;28;20059;-88
2023/10/10 12:51:30;;;;;;;22.35;17.27;;;22.60;99.90;;;;;;5037306;28;20045;-89
2023/10/10 12:54:05;;;;;;;21.70;17.92;;;22.40;99.90;;;;;;5053756;28;20565;-88
2023/10/10 12:56:38;;;;;;;21.00;16.35;;;22.10;1.00;;;;;;5037600;28;20048;-89
2023/10/10 12:59:07;;;;;;;23.20;16.65;;;21.80;1.00;;;;;;5037906;28;20052;-87
2023/10/10 13:01:35;;;;;;;23.27;17.95;;;21.70;1.00;;;;;;5037125;28;20041;-89
2023/10/10 13:04:07;;;;;;;25.40;17.73;;;21.60;1.00;;;;;;5053788;28;20060;-89
2023/10/10 13:06:35;;;;;;;17.70;15.50;;;21.40;1.00;;;;;;5037132;28;20056;-88
2023/10/10 13:09:05;;;;;;;21.63;15.98;;;21.30;1.00;;;;;;5053696;28;20053;-88
2023/10/10 13:11:36;;;;;;;21.67;16.83;;;21.20;1.00;;;;;;5053076;28;20040;-88
2023/10/10 13:14:14;;;;;;;21.85;16.52;;;21.10;1.00;;;;;;5037054;28;20547;-88
2023/10/10 13:19:11;;;;;;;22.17;18.50;;;20.90;1.00;;;;;;5053854;28;20045;-88
2023/10/10 13:21:42;;;;;;;21.48;18.35;;;20.90;1.00;;;;;;5036992;28;20056;-89
2023/10/10 13:24:11;;;;;;;24.98;18.35;;;20.20;1.00;;;;;;5037636;28;20074;-89
2023/10/10 13:26:49;;;;;;;25.60;18.02;;;20.70;1.00;;;;;;5003670;28;20060;-88
2023/10/10 13:29:18;;;;;;;24.98;19.00;;;20.70;1.00;;;;;;5037696;28;20048;-89
2023/10/10 13:31:46;;;;;;;27.10;17.05;;;20.60;1.00;;;;;;5036815;28;20045;-89
2023/10/10 13:34:16;;;;;;;22.90;17.35;;;20.60;1.00;;;;;;5036430;28;20052;-89
2023/10/10 13:36:42;;;;;;;22.90;17.45;;;20.60;1.00;;;;;;5036695;28;20049;-88
2023/10/10 13:39:14;;;;;;;21.92;16.33;;;20.60;1.00;;;;;;5069388;28;20037;-89
2023/10/10 13:41:41;;;;;;;21.45;17.67;;;20.60;1.00;;;;;;5037277;28;20072;-89
2023/10/10 13:44:07;;;;;;;23.40;18.85;;;20.50;1.00;;;;;;5037286;28;20048;-89
2023/10/10 13:46:36;;;;;;;24.52;17.73;;;20.50;1.00;;;;;;5053304;28;20045;-91
2023/10/10 13:49:08;;;;;;;21.08;16.75;;;20.40;1.00;;;;;;5053318;28;20386;-89
2023/10/10 13:51:40;;;;;;;22.73;16.02;;;20.30;1.00;;;;;;5052133;28;20067;-90
2023/10/10 13:54:13;;;;;;;22.52;16.33;;;20.40;1.00;;;;;;5036336;28;20068;-89
2023/10/10 13:56:43;;;;;;;20.33;17.23;;;20.40;1.00;;;;;;5052541;28;20041;-88
2023/10/10 13:59:11;;;;;;;22.17;18.25;;;20.40;1.00;;;;;;5036624;28;20375;-89
2023/10/10 14:01:43;;;;;;;21.42;16.95;;;20.30;1.00;;;;;;5034495;28;20129;-89
2023/10/10 14:04:26;;;;;;;19.45;16.38;;;20.30;1.00;;;;;;5035612;28;20072;-89
2023/10/10 14:06:54;;;;;;;21.45;17.55;;;20.30;1.00;;;;;;5036061;28;20053;-88
2023/10/10 14:09:25;;;;;;;19.33;15.80;;;20.30;1.00;;;;;;5034209;28;20103;-89
2023/10/10 14:11:56;;;;;;;21.05;15.43;;;20.30;1.00;;;;;;5050751;28;20083;-89
2023/10/10 14:14:25;;;;;;;23.70;15.65;;;20.30;1.00;;;;;;5036081;28;20049;-89
2023/10/10 14:16:51;;;;;;;18.80;15.73;;;20.50;1.00;;;;;;5052194;28;20127;-89
2023/10/10 14:19:16;;;;;;;18.40;16.27;;;20.50;1.00;;;;;;5053469;28;20132;-89
2023/10/10 14:21:47;;;;;;;24.83;16.00;;;20.50;1.00;;;;;;5033856;28;20050;-88
2023/10/10 14:24:13;;;;;;;23.63;16.33;;;20.50;1.00;;;;;;5047502;28;20131;-88
2023/10/10 14:26:43;;;;;;;;;;;20.50;1.00;;;;;;5051107;28;20124;-85
2023/10/10 14:29:12;;;;;;;19.55;14.98;;;20.90;1.00;;;;;;5053195;28;19921;-84
2023/10/10 14:31:44;;;;;;;19.60;15.00;;;20.50;1.00;;;;;;5052025;28;20048;-89
2023/10/10 14:34:24;;;;;;;19.88;15.73;;;20.50;1.00;;;;;;5050828;28;20583;-82
2023/10/10 14:36:54;;;;;;;20.20;15.88;;;20.50;1.00;;;;;;5031071;28;20041;-86
2023/10/10 14:39:31;;;;;;;20.08;15.65;;;20.50;1.00;;;;;;5051054;28;20053;-87
2023/10/10 14:42:01;;;;;;;21.42;16.67;;;20.30;1.00;;;;;;5085870;28;20070;-87
2023/10/10 14:44:28;;;;;;;22.05;16.92;;;20.30;1.00;;;;;;5068084;28;20045;-87
2023/10/10 14:46:55;;;;;;;23.52;17.85;;;20.30;1.00;;;;;;5017239;28;20059;-86
2023/10/10 14:49:29;;;;;;;20.55;17.10;;;20.20;1.00;;;;;;5053355;28;20059;-87
2023/10/10 14:52:00;;;;;;;21.67;17.75;;;20.20;1.00;;;;;;5085523;28;20048;-87
2023/10/10 14:54:27;;;;;;;28.42;17.88;;;20.10;1.00;;;;;;5083748;28;20124;-88
2023/10/10 14:56:55;;;;;;;19.70;16.60;;;20.10;1.00;;;;;;5075227;28;20056;-87
2023/10/10 14:59:31;;;;;;;21.95;17.05;;;20.00;1.00;;;;;;5050794;28;20088;-87
2023/10/10 15:01:59;;;;;;;21.75;16.67;;;20.10;1.00;;;;;;5071712;28;20077;-86
2023/10/10 15:04:28;;;;;;;18.70;14.65;;;20.00;1.00;;;;;;5039492;28;20172;-87
2023/10/10 15:06:54;;;;;;;21.00;17.08;;;20.00;1.00;;;;;;5023825;28;20045;-85
2023/10/10 15:09:23;;;;;;;;;;;20.00;1.00;;;;;;5040613;28;20041;-86
2023/10/10 15:11:51;;;;;;;19.90;16.33;;;19.90;1.00;;;;;;5030161;28;19975;-85
2023/10/10 15:14:19;;;;;;;25.85;16.17;;;19.90;1.00;;;;;;5063694;28;20040;-87
2023/10/10 15:16:48;;;;;;;21.15;15.27;;;19.90;1.00;;;;;;5072682;28;20120;-87
2023/10/10 15:19:15;;;;;;;23.42;16.05;;;19.80;1.00;;;;;;5034385;28;20049;-85
2023/10/10 15:21:41;;;;;;;21.35;16.35;;;19.80;1.00;;;;;;5034863;28;20048;-85
2023/10/10 15:24:15;;;;;;;20.33;14.88;;;19.70;1.00;;;;;;5038996;28;20056;-87
2023/10/10 15:26:45;;;;;;;20.85;14.60;;;19.70;1.00;;;;;;5041580;28;20041;-86
2023/10/10 15:29:12;;;;;;;21.50;15.80;;;19.60;1.00;;;;;;5054676;28;20139;-85
2023/10/10 15:31:40;;;;;;;19.05;14.25;;;19.60;1.00;;;;;;5055013;28;20053;-85
2023/10/10 15:34:07;;;;;;;22.13;14.43;;;19.50;1.00;;;;;;5020648;28;20048;-85
2023/10/10 15:36:33;;;;;;;18.13;13.90;;;19.50;1.00;;;;;;5055309;28;20045;-86
2023/10/10 15:39:06;;;;;;;19.08;15.15;;;19.50;1.00;;;;;;5063828;28;20052;-86
2023/10/10 15:41:34;;;;;;;18.67;15.18;;;19.60;1.00;;;;;;5040708;28;20044;-86
2023/10/10 15:44:03;;;;;;;19.20;14.70;;;19.40;1.00;;;;;;5052061;28;20053;-86
2023/10/10 15:46:31;;;;;;;18.35;15.05;;;19.40;1.00;;;;;;5051973;28;20134;-86
2023/10/10 15:48:58;;;;;;;20.95;14.80;;;19.40;1.00;;;;;;5060819;28;20171;-86
2023/10/10 15:51:25;;;;;;;20.13;14.80;;;19.30;1.00;;;;;;5046260;28;20041;-86
2023/10/10 15:53:53;;;;;;;19.80;13.93;;;19.20;1.00;;;;;;5031516;28;20055;-90
2023/10/10 15:56:32;;;;;;;21.75;15.57;;;19.20;1.00;;;;;;5051102;28;20037;-88
2023/10/10 15:59:01;;;;;;;17.88;13.80;;;19.20;1.00;;;;;;5046980;28;20053;-91
2023/10/10 16:01:29;;;;;;;17.02;14.18;;;19.10;1.00;;;;;;5061402;28;20044;-88
2023/10/10 16:04:07;;;;;;;20.02;15.05;;;19.10;1.00;;;;;;5079043;28;20045;-85